createdAt,value
2018-06-19T00:02:37.890Z,14.30
2018-06-19T00:06:42.611Z,14.20
2018-06-19T00:10:47.146Z,14.20
2018-06-19T00:14:52.367Z,14.10
2018-06-19T00:18:59.521Z,14.10
2018-06-19T00:23:04.633Z,14.10
2018-06-19T00:27:09.900Z,14.00
2018-06-19T00:31:15.181Z,14.80
2018-06-19T00:35:20.734Z,14.60
2018-06-19T00:39:29.821Z,14.70
2018-06-19T00:43:34.683Z,14.50
2018-06-19T00:47:39.092Z,14.60
2018-06-19T00:51:43.339Z,14.50
2018-06-19T00:55:47.714Z,14.40
2018-06-19T00:59:51.902Z,14.50
2018-06-19T01:03:56.525Z,14.40
2018-06-19T01:08:00.756Z,14.40
2018-06-19T01:12:05.147Z,14.30
2018-06-19T01:16:09.365Z,14.30
2018-06-19T01:20:13.739Z,14.00
2018-06-19T01:24:17.964Z,14.00
2018-06-19T01:32:26.240Z,13.80
2018-06-19T01:36:30.910Z,13.80
2018-06-19T01:40:35.197Z,13.70
2018-06-19T01:44:39.404Z,13.50
2018-06-19T01:48:43.786Z,13.50
2018-06-19T01:52:48.003Z,13.60
2018-06-19T01:56:52.357Z,13.60
2018-06-19T02:00:56.564Z,13.60
2018-06-19T02:05:00.931Z,13.60
2018-06-19T02:13:10.379Z,13.60
2018-06-19T02:17:14.576Z,13.50
2018-06-19T02:21:18.829Z,13.50
2018-06-19T02:25:23.038Z,13.80
2018-06-19T02:37:35.023Z,13.80
2018-06-19T02:41:39.250Z,13.70
2018-06-19T02:45:43.514Z,13.60
2018-06-19T02:49:47.845Z,13.70
2018-06-19T02:53:52.036Z,13.70
2018-06-19T02:57:56.372Z,13.80
2018-06-19T03:02:00.591Z,13.80
2018-06-19T03:06:04.932Z,14.00
2018-06-19T03:10:09.181Z,14.10
2018-06-19T03:14:13.447Z,14.20
2018-06-19T03:18:17.659Z,14.20
2018-06-19T03:22:22.130Z,14.20
2018-06-19T03:26:26.374Z,14.20
2018-06-19T03:30:30.833Z,14.10
2018-06-19T03:34:35.043Z,14.20
2018-06-19T03:38:39.291Z,14.20
2018-06-19T03:42:43.462Z,14.20
2018-06-19T03:46:47.732Z,14.20
2018-06-19T03:50:51.929Z,14.30
2018-06-19T03:54:56.364Z,14.30
2018-06-19T03:59:00.653Z,14.30
2018-06-19T04:03:05.267Z,14.40
2018-06-19T04:07:09.817Z,14.50
2018-06-19T04:11:14.051Z,14.50
2018-06-19T04:15:18.575Z,14.60
2018-06-19T04:19:22.817Z,14.70
2018-06-19T04:23:27.155Z,14.80
2018-06-19T04:27:31.399Z,14.90
2018-06-19T04:31:35.860Z,15.00
2018-06-19T04:35:40.496Z,15.10
2018-06-19T04:39:44.787Z,15.20
2018-06-19T04:43:49.213Z,15.30
2018-06-19T04:47:53.562Z,15.50
2018-06-19T04:51:57.806Z,15.50
2018-06-19T04:56:02.224Z,15.70
2018-06-19T05:00:06.855Z,15.80
2018-06-19T05:04:11.200Z,15.90
2018-06-19T05:08:15.496Z,16.10
2018-06-19T05:12:20.487Z,16.20
2018-06-19T05:16:25.191Z,16.50
2018-06-19T05:20:29.512Z,16.80
2018-06-19T05:24:33.712Z,17.20
2018-06-19T05:28:38.087Z,18.20
2018-06-19T05:32:42.691Z,18.20
2018-06-19T05:36:47.276Z,18.40
2018-06-19T05:40:51.912Z,18.70
2018-06-19T05:44:56.429Z,19.10
2018-06-19T05:49:00.965Z,19.40
2018-06-19T05:53:05.429Z,19.50
2018-06-19T05:57:09.976Z,19.50
2018-06-19T06:01:14.279Z,19.90
2018-06-19T06:05:18.636Z,20.00
2018-06-19T06:09:31.110Z,20.10
2018-06-19T06:13:35.298Z,20.10
2018-06-19T06:17:39.666Z,20.00
2018-06-19T06:21:43.857Z,20.30
2018-06-19T06:25:48.084Z,20.40
2018-06-19T06:29:52.299Z,20.70
2018-06-19T06:33:57.255Z,20.70
2018-06-19T06:38:01.593Z,20.80
2018-06-19T06:42:05.891Z,20.90
2018-06-19T06:46:10.412Z,21.00
2018-06-19T06:50:14.887Z,21.10
2018-06-19T06:54:19.166Z,21.20
2018-06-19T06:58:23.428Z,21.30
2018-06-19T07:02:27.770Z,21.40
2018-06-19T07:06:32.733Z,21.50
2018-06-19T07:10:36.948Z,21.60
2018-06-19T07:14:41.733Z,21.60
2018-06-19T07:18:45.922Z,21.60
2018-06-19T07:22:50.155Z,21.60
2018-06-19T07:26:54.385Z,21.70
2018-06-19T07:30:58.577Z,21.80
2018-06-19T07:35:02.857Z,21.90
2018-06-19T07:39:08.998Z,22.00
2018-06-19T07:43:13.203Z,22.10
2018-06-19T07:47:17.394Z,22.20
2018-06-19T07:51:21.760Z,22.30
2018-06-19T07:55:26.135Z,22.40
2018-06-19T07:59:30.684Z,22.50
2018-06-19T08:03:35.082Z,22.70
2018-06-19T08:07:39.293Z,22.80
2018-06-19T08:11:43.604Z,22.90
2018-06-19T08:15:47.936Z,23.00
2018-06-19T08:19:52.177Z,23.10
2018-06-19T08:23:56.420Z,23.40
2018-06-19T08:28:00.647Z,23.50
2018-06-19T08:32:05.002Z,23.10
2018-06-19T08:36:09.351Z,23.40
2018-06-19T08:40:13.607Z,23.80
2018-06-19T08:44:17.885Z,23.70
2018-06-19T08:48:22.195Z,23.70
2018-06-19T08:52:26.476Z,23.70
2018-06-19T08:56:30.672Z,24.10
2018-06-19T09:00:34.845Z,24.30
2018-06-19T09:04:39.125Z,26.00
2018-06-19T09:08:43.413Z,27.30
2018-06-19T09:12:47.674Z,28.20
2018-06-19T09:16:51.974Z,29.20
2018-06-19T09:20:56.213Z,29.70
2018-06-19T09:25:00.487Z,30.10
2018-06-19T09:29:04.763Z,29.10
2018-06-19T09:33:09.011Z,29.70
2018-06-19T09:37:13.247Z,29.90
2018-06-19T09:41:18.792Z,29.50
2018-06-19T09:45:23.349Z,28.40
2018-06-19T09:49:28.341Z,28.10
2018-06-19T09:53:33.252Z,28.70
2018-06-19T09:57:38.369Z,27.30
2018-06-19T10:01:42.893Z,27.20
2018-06-19T10:05:47.760Z,26.70
2018-06-19T10:09:53.207Z,26.30
2018-06-19T10:13:58.399Z,26.10
2018-06-19T10:18:03.273Z,26.50
2018-06-19T10:22:07.897Z,26.80
2018-06-19T10:30:16.725Z,29.00
2018-06-19T10:34:21.562Z,29.20
2018-06-19T10:38:26.472Z,30.00
2018-06-19T10:42:31.139Z,30.10
2018-06-19T10:46:35.901Z,30.50
2018-06-19T10:50:40.308Z,28.60
2018-06-19T10:54:46.332Z,30.00
2018-06-19T10:58:51.571Z,31.90
2018-06-19T11:02:55.936Z,31.00
2018-06-19T11:07:00.517Z,32.20
2018-06-19T11:11:05.170Z,32.30
2018-06-19T11:15:09.388Z,32.20
2018-06-19T11:19:14.187Z,33.00
2018-06-19T11:23:18.824Z,33.80
2018-06-19T11:27:23.903Z,33.90
2018-06-19T11:31:28.295Z,34.60
2018-06-19T11:35:33.389Z,32.30
2018-06-19T11:39:38.672Z,32.80
2018-06-19T11:43:43.469Z,33.10
2018-06-19T11:47:48.310Z,31.10
2018-06-19T11:51:53.160Z,30.30
2018-06-19T11:55:58.415Z,31.20
2018-06-19T12:00:03.025Z,31.50
2018-06-19T12:04:08.189Z,30.20
2018-06-19T12:08:13.066Z,29.90
2018-06-19T12:12:18.390Z,29.40
2018-06-19T12:16:22.996Z,28.90
2018-06-19T12:20:28.273Z,28.50
2018-06-19T12:24:34.379Z,29.40
2018-06-19T12:28:39.128Z,32.10
2018-06-19T12:32:43.773Z,33.30
2018-06-19T12:36:49.393Z,34.70
2018-06-19T12:40:54.692Z,33.10
2018-06-19T12:44:59.594Z,31.70
2018-06-19T12:49:05.058Z,29.50
2018-06-19T12:53:20.821Z,28.50
2018-06-19T12:57:25.671Z,29.00
2018-06-19T13:01:30.129Z,31.50
2018-06-19T13:05:45.364Z,35.40
2018-06-19T13:09:50.340Z,37.20
2018-06-19T13:14:05.605Z,34.40
2018-06-19T13:18:20.960Z,33.10
2018-06-19T13:22:26.080Z,31.90
2018-06-19T13:26:31.601Z,30.60
2018-06-19T13:31:47.256Z,29.60
2018-06-19T13:35:52.468Z,29.60
2018-06-19T13:41:41.157Z,30.50
2018-06-19T13:45:46.351Z,32.30
2018-06-19T13:49:51.093Z,32.10
2018-06-19T13:58:32.560Z,33.60
2018-06-19T14:02:37.014Z,34.00
2018-06-19T14:06:41.473Z,32.60
2018-06-19T14:10:57.708Z,30.20
2018-06-19T14:15:02.701Z,30.00
2018-06-19T14:19:07.931Z,31.30
2018-06-19T14:23:13.269Z,32.10
2018-06-19T14:27:17.774Z,33.10
2018-06-19T14:31:22.183Z,34.50
2018-06-19T14:35:26.953Z,34.30
2018-06-19T14:39:32.378Z,33.00
2018-06-19T14:43:36.880Z,34.00
2018-06-19T14:47:42.449Z,35.50
2018-06-19T14:51:46.868Z,37.60
2018-06-19T14:55:51.556Z,38.30
2018-06-19T14:59:56.357Z,38.50
2018-06-19T15:04:02.018Z,39.00
2018-06-19T15:08:07.324Z,37.80
2018-06-19T15:12:12.649Z,37.50
2018-06-19T15:16:19.395Z,37.40
2018-06-19T15:20:24.836Z,37.50
2018-06-19T15:24:30.460Z,37.80
2018-06-19T15:28:35.030Z,37.90
2018-06-19T15:32:40.400Z,37.90
2018-06-19T15:36:45.903Z,38.30
2018-06-19T15:40:50.389Z,38.90
2018-06-19T15:44:55.882Z,39.20
2018-06-19T15:49:00.812Z,37.80
2018-06-19T15:53:05.743Z,37.70
2018-06-19T15:57:11.938Z,37.60
2018-06-19T16:01:16.307Z,36.70
2018-06-19T16:05:20.916Z,35.70
2018-06-19T16:09:25.531Z,34.30
2018-06-19T16:13:30.148Z,34.50
2018-06-19T16:22:28.149Z,32.40
2018-06-19T16:26:33.813Z,30.70
2018-06-19T16:30:39.074Z,29.70
2018-06-19T16:34:44.113Z,28.80
2018-06-19T16:38:49.248Z,28.00
2018-06-19T16:42:54.645Z,27.30
2018-06-19T16:46:59.754Z,26.90
2018-06-19T16:51:04.320Z,26.60
2018-06-19T16:55:08.931Z,26.60
2018-06-19T16:59:14.530Z,26.50
2018-06-19T17:03:19.281Z,26.30
2018-06-19T17:11:33.129Z,25.80
2018-06-19T17:15:37.964Z,25.70
2018-06-19T17:19:42.499Z,25.60
2018-06-19T17:23:47.152Z,25.60
2018-06-19T17:27:51.610Z,25.40
2018-06-19T17:31:56.021Z,25.20
2018-06-19T17:36:00.397Z,25.00
2018-06-19T17:40:05.361Z,24.30
2018-06-19T17:44:10.035Z,23.80
2018-06-19T17:48:14.768Z,23.40
2018-06-19T17:52:19.584Z,23.40
2018-06-19T17:56:24.702Z,23.80
2018-06-19T18:00:29.034Z,24.10
2018-06-19T18:04:33.738Z,24.10
2018-06-19T18:08:38.491Z,24.00
2018-06-19T18:12:44.804Z,23.80
2018-06-19T18:16:50.277Z,23.60
2018-06-19T18:20:54.947Z,23.30
2018-06-19T18:24:59.374Z,23.00
2018-06-19T18:29:05.121Z,22.80
2018-06-19T18:33:10.587Z,22.40
2018-06-19T18:37:16.533Z,21.90
2018-06-19T18:41:22.054Z,21.40
2018-06-19T18:45:27.472Z,21.10
2018-06-19T18:49:32.412Z,20.70
2018-06-19T18:53:38.668Z,20.60
2018-06-19T18:57:44.404Z,20.30
2018-06-19T19:01:49.922Z,20.20
2018-06-19T19:05:55.207Z,19.80
2018-06-19T19:10:04.982Z,19.70
2018-06-19T19:14:09.431Z,19.60
2018-06-19T19:18:19.879Z,19.50
2018-06-19T19:22:24.721Z,19.40
2018-06-19T19:26:34.632Z,19.30
2018-06-19T19:30:40.390Z,19.10
2018-06-19T19:34:45.421Z,19.00
2018-06-19T19:38:55.698Z,18.60
2018-06-19T19:43:00.240Z,18.30
2018-06-19T19:47:09.983Z,18.40
2018-06-19T19:51:15.674Z,18.30
2018-06-19T19:55:21.391Z,18.30
2018-06-19T19:59:26.794Z,18.30
2018-06-19T20:03:31.828Z,18.10
2018-06-19T20:07:37.325Z,18.00
2018-06-19T20:11:41.722Z,17.80
2018-06-19T20:15:46.609Z,17.70
2018-06-19T20:19:52.632Z,17.70
2018-06-19T20:23:57.817Z,17.70
2018-06-19T20:28:02.472Z,17.60
2018-06-19T20:32:07.073Z,17.50
2018-06-19T20:40:17.516Z,17.40
2018-06-19T20:44:23.249Z,17.10
2018-06-19T20:48:28.529Z,16.90
2018-06-19T20:52:33.613Z,17.00
2018-06-19T20:56:38.750Z,16.90
2018-06-19T21:00:43.580Z,16.90
2018-06-19T21:04:48.628Z,16.80
2018-06-19T21:08:53.293Z,16.70
2018-06-19T21:12:59.222Z,16.60
2018-06-19T21:17:03.893Z,16.60
2018-06-19T21:21:09.095Z,16.30
2018-06-19T21:25:13.353Z,16.40
2018-06-19T21:29:18.209Z,16.30
2018-06-19T21:33:22.721Z,16.40
2018-06-19T21:37:27.671Z,16.20
2018-06-19T21:41:32.476Z,16.20
2018-06-19T21:45:37.136Z,16.00
2018-06-19T21:49:42.252Z,15.90
2018-06-19T21:53:46.881Z,15.90
2018-06-19T21:57:51.748Z,16.00
2018-06-19T22:01:57.142Z,15.80
2018-06-19T22:06:01.759Z,15.80
2018-06-19T22:10:06.425Z,15.70
2018-06-19T22:14:10.974Z,15.60
2018-06-19T22:18:16.529Z,15.60
2018-06-19T22:22:21.264Z,15.50
2018-06-19T22:26:26.654Z,15.50
2018-06-19T22:30:31.954Z,15.50
2018-06-19T22:34:36.456Z,15.40
2018-06-19T22:38:41.565Z,15.40
2018-06-19T22:42:46.364Z,15.20
2018-06-19T22:46:51.370Z,15.30
2018-06-19T22:50:56.254Z,15.00
2018-06-19T22:55:00.715Z,15.00
2018-06-19T22:59:05.784Z,15.10
2018-06-19T23:03:10.449Z,14.90
2018-06-19T23:07:14.934Z,14.90
2018-06-19T23:11:20.938Z,14.70
2018-06-19T23:15:26.475Z,14.70
2018-06-19T23:19:31.813Z,14.70
2018-06-19T23:23:38.703Z,14.70
2018-06-19T23:27:43.429Z,14.60
2018-06-19T23:31:47.905Z,14.50
2018-06-19T23:35:52.225Z,14.40
2018-06-19T23:39:57.293Z,14.40
2018-06-19T23:44:02.612Z,14.30
2018-06-19T23:48:07.891Z,14.30
2018-06-19T23:52:13.237Z,14.20
2018-06-19T23:56:18.271Z,14.20
